createdAt,value
2018-05-10T00:01:39.805Z,100437.16
2018-05-10T00:04:05.561Z,100429.23
2018-05-10T00:06:31.297Z,100426.89
2018-05-10T00:08:57.040Z,100425.64
2018-05-10T00:11:22.793Z,100425.09
2018-05-10T00:13:48.519Z,100420.23
2018-05-10T00:16:14.269Z,100417.75
2018-05-10T00:18:40.008Z,100423.10
2018-05-10T00:21:05.759Z,100418.03
2018-05-10T00:23:31.496Z,100415.85
2018-05-10T00:25:57.249Z,100413.80
2018-05-10T00:28:22.997Z,100414.20
2018-05-10T00:30:48.738Z,100412.93
2018-05-10T00:33:14.468Z,100408.77
2018-05-10T00:35:40.211Z,100406.72
2018-05-10T00:38:05.936Z,100402.02
2018-05-10T00:40:31.686Z,100404.48
2018-05-10T00:42:57.408Z,100398.32
2018-05-10T00:45:23.172Z,100398.95
2018-05-10T00:47:48.900Z,100403.11
2018-05-10T00:50:14.649Z,100400.03
2018-05-10T00:52:40.415Z,100395.48
2018-05-10T00:55:06.181Z,100393.94
2018-05-10T00:57:31.929Z,100390.64
2018-05-10T00:59:57.667Z,100388.47
2018-05-10T01:02:23.417Z,100387.53
2018-05-10T01:04:49.164Z,100390.89
2018-05-10T01:07:14.912Z,100392.42
2018-05-10T01:09:40.649Z,100398.82
2018-05-10T01:12:06.404Z,100390.12
2018-05-10T01:14:32.128Z,100390.11
2018-05-10T01:16:57.880Z,100387.84
2018-05-10T01:19:23.604Z,100386.41
2018-05-10T01:21:49.368Z,100383.00
2018-05-10T01:24:15.102Z,100376.16
2018-05-10T01:26:40.852Z,100370.74
2018-05-10T01:29:06.592Z,100376.42
2018-05-10T01:31:32.344Z,100379.93
2018-05-10T01:33:58.080Z,100380.94
2018-05-10T01:36:23.816Z,100376.84
2018-05-10T01:38:49.570Z,100369.33
2018-05-10T01:41:15.300Z,100379.70
2018-05-10T01:43:41.064Z,100370.85
2018-05-10T01:46:06.821Z,100369.27
2018-05-10T01:48:32.564Z,100372.31
2018-05-10T01:50:58.295Z,100370.45
2018-05-10T01:53:24.040Z,100372.73
2018-05-10T01:55:49.781Z,100360.66
2018-05-10T01:58:15.529Z,100365.23
2018-05-10T02:00:41.259Z,100366.94
2018-05-10T02:03:06.992Z,100369.36
2018-05-10T02:05:32.722Z,100367.30
2018-05-10T02:07:58.471Z,100369.45
2018-05-10T02:10:24.206Z,100361.94
2018-05-10T02:12:49.942Z,100356.19
2018-05-10T02:15:15.709Z,100356.25
2018-05-10T02:17:41.453Z,100358.77
2018-05-10T02:20:07.184Z,100354.10
2018-05-10T02:22:32.917Z,100347.20
2018-05-10T02:24:58.691Z,100348.59
2018-05-10T02:27:24.440Z,100348.27
2018-05-10T02:29:50.206Z,100347.88
2018-05-10T02:32:15.920Z,100345.46
2018-05-10T02:34:41.666Z,100342.80
2018-05-10T02:37:07.401Z,100344.84
2018-05-10T02:39:33.149Z,100352.13
2018-05-10T02:41:58.877Z,100339.69
2018-05-10T02:44:24.611Z,100348.86
2018-05-10T02:46:50.354Z,100352.25
2018-05-10T02:49:16.089Z,100351.86
2018-05-10T02:51:41.826Z,100347.41
2018-05-10T02:54:07.564Z,100340.73
2018-05-10T02:56:33.311Z,100345.20
2018-05-10T02:58:59.064Z,100341.75
2018-05-10T03:01:24.801Z,100344.24
2018-05-10T03:03:50.533Z,100342.64
2018-05-10T03:06:16.280Z,100338.55
2018-05-10T03:08:42.024Z,100334.09
2018-05-10T03:11:07.761Z,100336.15
2018-05-10T03:13:33.498Z,100344.16
2018-05-10T03:15:59.232Z,100331.16
2018-05-10T03:18:24.976Z,100329.30
2018-05-10T03:20:50.731Z,100332.25
2018-05-10T03:23:16.449Z,100324.05
2018-05-10T03:25:42.203Z,100325.33
2018-05-10T03:28:07.920Z,100329.09
2018-05-10T03:30:33.669Z,100333.95
2018-05-10T03:32:59.396Z,100327.78
2018-05-10T03:35:25.123Z,100321.74
2018-05-10T03:37:50.864Z,100327.50
2018-05-10T03:40:16.612Z,100327.24
2018-05-10T03:42:42.352Z,100316.92
2018-05-10T03:45:08.101Z,100322.45
2018-05-10T03:47:33.834Z,100323.33
2018-05-10T03:49:59.576Z,100328.22
2018-05-10T03:52:25.299Z,100325.38
2018-05-10T03:54:51.045Z,100330.15
2018-05-10T03:57:16.772Z,100342.84
2018-05-10T03:59:42.518Z,100339.07
2018-05-10T04:02:08.244Z,100332.58
2018-05-10T04:04:46.471Z,100322.11
2018-05-10T04:07:25.460Z,100328.41
2018-05-10T04:10:03.700Z,100327.48
2018-05-10T04:12:29.440Z,100328.05
2018-05-10T04:14:55.201Z,100326.78
2018-05-10T04:17:20.928Z,100324.31
2018-05-10T04:19:46.668Z,100326.38
2018-05-10T04:22:12.400Z,100324.69
2018-05-10T04:24:38.129Z,100322.37
2018-05-10T04:27:03.871Z,100328.14
2018-05-10T04:29:29.603Z,100324.86
2018-05-10T04:31:55.346Z,100325.73
2018-05-10T04:34:21.078Z,100327.85
2018-05-10T04:36:46.831Z,100317.27
2018-05-10T04:39:12.563Z,100318.16
2018-05-10T04:41:38.312Z,100322.00
2018-05-10T04:44:04.045Z,100317.82
2018-05-10T04:46:29.798Z,100303.00
2018-05-10T04:48:55.526Z,100308.88
2018-05-10T04:51:21.265Z,100312.66
2018-05-10T04:53:47.004Z,100301.37
2018-05-10T04:56:12.748Z,100310.77
2018-05-10T04:58:38.476Z,100315.92
2018-05-10T05:01:04.212Z,100321.02
2018-05-10T05:03:29.966Z,100317.72
2018-05-10T05:05:55.672Z,100316.89
2018-05-10T05:08:21.415Z,100316.77
2018-05-10T05:10:47.156Z,100315.73
2018-05-10T05:13:12.883Z,100322.97
2018-05-10T05:15:38.608Z,100328.02
2018-05-10T05:18:04.350Z,100330.06
2018-05-10T05:20:30.092Z,100327.02
2018-05-10T05:22:55.845Z,100323.91
2018-05-10T05:25:21.573Z,100318.14
2018-05-10T05:27:47.324Z,100319.84
2018-05-10T05:30:13.049Z,100317.43
2018-05-10T05:32:38.794Z,100326.72
2018-05-10T05:35:04.523Z,100323.55
2018-05-10T05:37:30.272Z,100331.14
2018-05-10T05:39:56.004Z,100328.98
2018-05-10T05:42:21.744Z,100329.48
2018-05-10T05:44:47.471Z,100322.66
2018-05-10T05:47:13.209Z,100324.38
2018-05-10T05:49:38.939Z,100327.25
2018-05-10T05:52:04.679Z,100318.95
2018-05-10T05:54:30.404Z,100323.83
2018-05-10T05:56:56.149Z,100325.63
2018-05-10T05:59:21.938Z,100327.42
2018-05-10T06:01:47.709Z,100312.88
2018-05-10T06:04:13.433Z,100313.91
2018-05-10T06:06:39.164Z,100318.00
2018-05-10T06:09:04.917Z,100305.19
2018-05-10T06:11:30.656Z,100305.37
2018-05-10T06:13:56.396Z,100302.61
2018-05-10T06:16:22.148Z,100298.99
2018-05-10T06:18:47.889Z,100303.73
2018-05-10T06:21:13.630Z,100314.19
2018-05-10T06:23:39.368Z,100316.84
2018-05-10T06:26:05.115Z,100319.28
2018-05-10T06:28:30.879Z,100316.80
2018-05-10T06:30:56.613Z,100313.52
2018-05-10T06:33:22.361Z,100312.05
2018-05-10T06:35:48.099Z,100316.42
2018-05-10T06:38:13.854Z,100321.97
2018-05-10T06:40:39.609Z,100321.67
2018-05-10T06:43:05.343Z,100322.15
2018-05-10T06:45:31.084Z,100334.18
2018-05-10T06:47:56.830Z,100335.70
2018-05-10T06:50:22.579Z,100335.71
2018-05-10T06:52:48.329Z,100343.07
2018-05-10T06:55:14.068Z,100333.18
2018-05-10T06:57:39.816Z,100344.45
2018-05-10T07:00:05.544Z,100349.66
2018-05-10T07:02:31.288Z,100362.23
2018-05-10T07:04:57.022Z,100367.16
2018-05-10T07:07:22.769Z,100364.95
2018-05-10T07:09:48.645Z,100355.32
2018-05-10T07:12:14.257Z,100357.04
2018-05-10T07:14:39.984Z,100355.34
2018-05-10T07:17:05.739Z,100349.74
2018-05-10T07:19:31.476Z,100350.91
2018-05-10T07:21:57.213Z,100345.37
2018-05-10T07:24:22.952Z,100346.22
2018-05-10T07:26:48.692Z,100352.54
2018-05-10T07:29:14.442Z,100352.50
2018-05-10T07:31:40.176Z,100348.06
2018-05-10T07:34:05.909Z,100342.97
2018-05-10T07:36:31.665Z,100344.07
2018-05-10T07:38:57.404Z,100349.72
2018-05-10T07:41:23.164Z,100352.08
2018-05-10T07:43:48.896Z,100348.19
2018-05-10T07:46:14.624Z,100356.01
2018-05-10T07:48:40.384Z,100347.81
2018-05-10T07:51:06.148Z,100353.00
2018-05-10T07:53:31.891Z,100351.16
2018-05-10T07:55:57.646Z,100347.08
2018-05-10T07:58:23.385Z,100343.23
2018-05-10T08:00:49.105Z,100343.16
2018-05-10T08:03:14.840Z,100342.42
2018-05-10T08:05:40.573Z,100346.02
2018-05-10T08:08:06.346Z,100352.52
2018-05-10T08:10:32.079Z,100344.44
2018-05-10T08:12:57.807Z,100343.39
2018-05-10T08:15:23.548Z,100339.86
2018-05-10T08:17:49.300Z,100343.31
2018-05-10T08:20:15.057Z,100335.41
2018-05-10T08:22:40.836Z,100335.77
2018-05-10T08:25:06.590Z,100332.26
2018-05-10T08:27:44.784Z,100333.63
2018-05-10T08:30:10.566Z,100329.91
2018-05-10T08:32:36.269Z,100331.22
2018-05-10T08:35:02.020Z,100328.77
2018-05-10T08:37:27.772Z,100326.53
2018-05-10T08:39:53.541Z,100327.59
2018-05-10T08:42:19.280Z,100325.36
2018-05-10T08:44:45.019Z,100322.91
2018-05-10T08:47:10.738Z,100326.56
2018-05-10T08:49:36.472Z,100325.55
2018-05-10T08:52:02.230Z,100323.36
2018-05-10T08:54:27.963Z,100322.41
2018-05-10T08:56:53.725Z,100326.13
2018-05-10T08:59:19.457Z,100324.34
2018-05-10T09:01:45.216Z,100333.11
2018-05-10T09:04:10.977Z,100331.59
2018-05-10T09:06:36.734Z,100335.41
2018-05-10T09:09:02.509Z,100331.25
2018-05-10T09:11:28.250Z,100335.50
2018-05-10T09:13:53.998Z,100341.39
2018-05-10T09:16:19.744Z,100335.10
2018-05-10T09:18:45.484Z,100328.91
2018-05-10T09:21:11.220Z,100332.12
2018-05-10T09:23:36.951Z,100330.47
2018-05-10T09:26:02.725Z,100325.22
2018-05-10T09:28:28.426Z,100327.45
2018-05-10T09:30:54.156Z,100329.14
2018-05-10T09:33:19.896Z,100321.03
2018-05-10T09:35:45.634Z,100330.97
2018-05-10T09:38:11.365Z,100327.93
2018-05-10T09:40:37.115Z,100330.83
2018-05-10T09:43:02.866Z,100322.83
2018-05-10T09:45:28.784Z,100322.98
2018-05-10T09:47:54.544Z,100323.48
2018-05-10T09:50:20.298Z,100326.89
2018-05-10T09:52:46.063Z,100324.84
2018-05-10T09:55:11.771Z,100325.81
2018-05-10T09:57:37.500Z,100327.84
2018-05-10T10:00:03.241Z,100324.64
2018-05-10T10:02:28.968Z,100328.79
2018-05-10T10:04:54.713Z,100325.83
2018-05-10T10:07:20.441Z,100323.67
2018-05-10T10:09:46.185Z,100332.08
2018-05-10T10:12:11.916Z,100329.16
2018-05-10T10:14:37.653Z,100327.06
2018-05-10T10:17:03.389Z,100318.81
2018-05-10T10:19:29.133Z,100327.02
2018-05-10T10:21:54.871Z,100323.89
2018-05-10T10:24:20.611Z,100323.73
2018-05-10T10:26:46.340Z,100324.39
2018-05-10T10:29:12.087Z,100328.08
2018-05-10T10:31:37.825Z,100333.34
2018-05-10T10:34:03.565Z,100334.46
2018-05-10T10:36:29.284Z,100329.71
2018-05-10T10:38:55.017Z,100336.03
2018-05-10T10:41:20.760Z,100336.98
2018-05-10T10:43:46.490Z,100335.44
2018-05-10T10:46:12.219Z,100336.61
2018-05-10T10:48:37.957Z,100341.70
2018-05-10T10:51:03.700Z,100344.33
2018-05-10T10:53:29.424Z,100337.33
2018-05-10T10:55:55.153Z,100346.42
2018-05-10T10:58:20.885Z,100341.44
2018-05-10T11:00:46.643Z,100347.09
2018-05-10T11:03:12.373Z,100341.58
2018-05-10T11:05:38.104Z,100341.97
2018-05-10T11:08:03.857Z,100345.20
2018-05-10T11:10:29.596Z,100344.27
2018-05-10T11:12:55.328Z,100353.44
2018-05-10T11:15:21.067Z,100349.89
2018-05-10T11:17:46.821Z,100348.51
2018-05-10T11:20:12.561Z,100353.20
2018-05-10T11:22:38.360Z,100353.48
2018-05-10T11:25:04.094Z,100351.14
2018-05-10T11:27:29.836Z,100350.92
2018-05-10T11:29:55.588Z,100341.20
2018-05-10T11:32:21.331Z,100342.13
2018-05-10T11:34:47.073Z,100347.90
2018-05-10T11:37:12.807Z,100338.76
2018-05-10T11:39:38.545Z,100337.70
2018-05-10T11:42:04.287Z,100334.74
2018-05-10T11:44:30.087Z,100334.20
2018-05-10T11:46:55.768Z,100341.22
2018-05-10T11:49:21.500Z,100343.95
2018-05-10T11:51:47.241Z,100343.61
2018-05-10T11:54:12.980Z,100336.77
2018-05-10T11:56:38.723Z,100331.77
2018-05-10T11:59:04.448Z,100332.00
2018-05-10T12:01:30.189Z,100334.69
2018-05-10T12:03:55.940Z,100323.94
2018-05-10T12:06:21.684Z,100327.72
2018-05-10T12:08:47.675Z,100313.31
2018-05-10T12:11:13.445Z,100312.42
2018-05-10T12:13:39.430Z,100319.92
2018-05-10T12:16:05.368Z,100312.16
2018-05-10T12:18:31.097Z,100306.72
2018-05-10T12:20:57.253Z,100312.33
2018-05-10T12:23:23.371Z,100306.39
2018-05-10T12:25:49.599Z,100298.89
2018-05-10T12:28:15.837Z,100306.19
2018-05-10T12:30:42.033Z,100305.56
2018-05-10T12:33:08.156Z,100299.89
2018-05-10T12:35:34.366Z,100306.78
2018-05-10T12:38:00.478Z,100305.79
2018-05-10T12:40:26.498Z,100302.59
2018-05-10T12:42:52.373Z,100305.48
2018-05-10T12:45:18.635Z,100307.79
2018-05-10T12:47:44.758Z,100303.22
2018-05-10T12:50:11.656Z,100302.30
2018-05-10T12:52:37.764Z,100308.09
2018-05-10T12:55:03.921Z,100334.85
2018-05-10T12:57:30.018Z,100358.20
2018-05-10T12:59:56.112Z,100354.19
2018-05-10T13:02:22.244Z,100377.89
2018-05-10T13:04:48.374Z,100389.03
2018-05-10T13:07:14.580Z,100397.92
2018-05-10T13:09:41.733Z,100407.03
2018-05-10T13:12:08.738Z,100427.11
2018-05-10T13:14:35.155Z,100429.14
2018-05-10T13:17:01.307Z,100442.56
2018-05-10T13:19:28.480Z,100459.89
2018-05-10T13:21:54.444Z,100465.95
2018-05-10T13:24:20.368Z,100447.97
2018-05-10T13:26:47.385Z,100459.47
2018-05-10T13:29:13.627Z,100465.94
2018-05-10T13:31:39.767Z,100452.73
2018-05-10T13:34:05.835Z,100443.06
2018-05-10T13:36:32.012Z,100451.92
2018-05-10T13:38:57.898Z,100461.44
2018-05-10T13:41:23.896Z,100478.06
2018-05-10T13:43:50.038Z,100481.30
2018-05-10T13:46:15.971Z,100477.22
2018-05-10T13:48:42.165Z,100486.88
2018-05-10T13:51:08.379Z,100496.80
2018-05-10T13:53:34.421Z,100504.15
2018-05-10T13:56:02.284Z,100519.69
2018-05-10T13:58:28.423Z,100519.85
2018-05-10T14:00:54.625Z,100526.24
2018-05-10T14:03:23.408Z,100535.71
2018-05-10T14:05:49.570Z,100544.42
2018-05-10T14:08:15.796Z,100543.17
2018-05-10T14:10:41.968Z,100552.64
2018-05-10T14:13:08.922Z,100562.44
2018-05-10T14:15:35.097Z,100558.39
2018-05-10T14:18:01.268Z,100568.63
2018-05-10T14:20:27.542Z,100580.77
2018-05-10T14:22:53.753Z,100575.28
2018-05-10T14:25:20.013Z,100582.36
2018-05-10T14:27:46.400Z,100600.98
2018-05-10T14:30:12.613Z,100602.00
2018-05-10T14:32:38.858Z,100594.96
2018-05-10T14:35:04.955Z,100596.82
2018-05-10T14:37:31.451Z,100602.56
2018-05-10T14:39:57.554Z,100612.17
2018-05-10T14:42:23.684Z,100628.02
2018-05-10T14:44:50.931Z,100642.38
2018-05-10T14:47:17.217Z,100656.64
2018-05-10T14:49:44.173Z,100660.63
2018-05-10T14:52:10.349Z,100668.09
2018-05-10T14:54:36.447Z,100681.95
2018-05-10T14:57:02.859Z,100698.86
2018-05-10T14:59:29.414Z,100699.66
2018-05-10T15:01:55.558Z,100706.14
2018-05-10T15:04:21.678Z,100707.83
2018-05-10T15:06:47.486Z,100719.52
2018-05-10T15:09:15.589Z,100720.52
2018-05-10T15:11:41.799Z,100729.25
2018-05-10T15:14:07.628Z,100725.06
2018-05-10T15:16:33.380Z,100724.55
2018-05-10T15:18:59.141Z,100727.50
2018-05-10T15:21:24.893Z,100746.03
2018-05-10T15:23:50.647Z,100760.84
2018-05-10T15:26:16.391Z,100753.84
2018-05-10T15:28:42.146Z,100757.02
2018-05-10T15:31:07.884Z,100764.58
2018-05-10T15:33:33.633Z,100764.05
2018-05-10T15:35:59.360Z,100765.36
2018-05-10T15:38:25.110Z,100769.68
2018-05-10T15:40:50.849Z,100786.04
2018-05-10T15:43:16.581Z,100789.08
2018-05-10T15:45:42.314Z,100788.28
2018-05-10T15:48:08.049Z,100791.08
2018-05-10T15:50:34.384Z,100793.53
2018-05-10T15:53:01.449Z,100784.64
2018-05-10T15:55:29.253Z,100789.67
2018-05-10T15:57:56.997Z,100793.75
2018-05-10T16:00:22.757Z,100794.36
2018-05-10T16:02:48.508Z,100787.81
2018-05-10T16:05:14.322Z,100788.19
2018-05-10T16:07:40.084Z,100792.13
2018-05-10T16:10:06.736Z,100792.64
2018-05-10T16:12:34.116Z,100793.69
2018-05-10T16:14:59.876Z,100793.00
2018-05-10T16:17:26.251Z,100801.91
2018-05-10T16:19:51.993Z,100802.80
2018-05-10T16:22:17.736Z,100812.14
2018-05-10T16:24:43.456Z,100809.17
2018-05-10T16:27:09.213Z,100817.39
2018-05-10T16:29:34.947Z,100821.50
2018-05-10T16:32:00.684Z,100819.58
2018-05-10T16:34:26.407Z,100828.81
2018-05-10T16:36:52.156Z,100826.41
2018-05-10T16:39:17.893Z,100825.58
2018-05-10T16:41:43.623Z,100825.02
2018-05-10T16:44:09.372Z,100829.76
2018-05-10T16:46:35.108Z,100825.00
2018-05-10T16:49:00.849Z,100824.94
2018-05-10T16:51:26.574Z,100838.72
2018-05-10T16:53:52.319Z,100847.32
2018-05-10T16:56:18.048Z,100853.84
2018-05-10T16:58:43.797Z,100865.86
2018-05-10T17:01:09.538Z,100873.55
2018-05-10T17:03:35.296Z,100893.67
2018-05-10T17:06:01.016Z,100892.55
2018-05-10T17:08:26.787Z,100898.31
2018-05-10T17:10:53.392Z,100908.69
2018-05-10T17:13:20.240Z,100912.11
2018-05-10T17:15:47.067Z,100907.36
2018-05-10T17:18:14.807Z,100904.05
2018-05-10T17:20:41.260Z,100921.52
2018-05-10T17:23:07.786Z,100927.72
2018-05-10T17:25:33.565Z,100934.28
2018-05-10T17:27:59.695Z,100937.73
2018-05-10T17:30:25.455Z,100938.84
2018-05-10T17:32:51.203Z,100953.05
2018-05-10T17:35:16.935Z,100957.44
2018-05-10T17:37:42.676Z,100962.98
2018-05-10T17:40:08.402Z,100969.12
2018-05-10T17:42:34.161Z,100971.05
2018-05-10T17:45:00.705Z,100979.80
2018-05-10T17:47:27.977Z,100984.42
2018-05-10T17:49:53.775Z,100986.84
2018-05-10T17:52:19.513Z,100995.77
2018-05-10T17:54:45.239Z,101005.56
2018-05-10T17:57:10.978Z,101006.60
2018-05-10T17:59:36.720Z,101010.12
2018-05-10T18:02:02.453Z,101014.59
2018-05-10T18:04:28.208Z,101021.45
2018-05-10T18:06:53.972Z,101033.61
2018-05-10T18:09:19.716Z,101046.35
2018-05-10T18:11:45.453Z,101051.02
2018-05-10T18:14:11.225Z,101056.27
2018-05-10T18:16:36.954Z,101068.08
2018-05-10T18:19:02.689Z,101075.94
2018-05-10T18:21:28.413Z,101089.45
2018-05-10T18:23:54.164Z,101089.91
2018-05-10T18:26:19.901Z,101096.64
2018-05-10T18:28:45.644Z,101101.48
2018-05-10T18:31:11.363Z,101104.48
2018-05-10T18:33:37.100Z,101104.72
2018-05-10T18:36:02.818Z,101118.48
2018-05-10T18:38:28.566Z,101105.96
2018-05-10T18:40:54.385Z,101118.92
2018-05-10T18:43:20.029Z,101120.60
2018-05-10T18:45:45.756Z,101131.19
2018-05-10T18:48:11.493Z,101128.80
2018-05-10T18:50:37.212Z,101131.78
2018-05-10T18:53:02.933Z,101133.22
2018-05-10T18:55:28.670Z,101134.39
2018-05-10T18:57:54.388Z,101138.59
2018-05-10T19:00:20.129Z,101145.52
2018-05-10T19:02:45.847Z,101152.55
2018-05-10T19:05:11.576Z,101160.84
2018-05-10T19:07:37.298Z,101166.81
2018-05-10T19:10:03.035Z,101177.31
2018-05-10T19:12:28.757Z,101169.02
2018-05-10T19:14:54.493Z,101178.27
2018-05-10T19:17:20.213Z,101191.62
2018-05-10T19:19:45.955Z,101197.89
2018-05-10T19:22:11.680Z,101192.34
2018-05-10T19:24:37.472Z,101194.20
2018-05-10T19:27:03.149Z,101202.42
2018-05-10T19:29:28.883Z,101207.14
2018-05-10T19:31:54.665Z,101207.15
2018-05-10T19:34:20.353Z,101215.06
2018-05-10T19:36:46.079Z,101207.69
2018-05-10T19:39:11.809Z,101214.38
2018-05-10T19:41:37.529Z,101222.73
2018-05-10T19:44:03.268Z,101229.34
2018-05-10T19:46:29.017Z,101235.64
2018-05-10T19:48:54.755Z,101235.34
2018-05-10T19:51:20.496Z,101242.61
2018-05-10T19:53:46.208Z,101256.64
2018-05-10T19:56:11.928Z,101260.91
2018-05-10T19:58:37.660Z,101266.62
2018-05-10T20:01:03.395Z,101266.31
2018-05-10T20:03:29.112Z,101261.19
2018-05-10T20:05:54.843Z,101265.03
2018-05-10T20:08:20.576Z,101264.34
2018-05-10T20:10:46.315Z,101271.95
2018-05-10T20:13:12.036Z,101281.42
2018-05-10T20:15:37.776Z,101286.39
2018-05-10T20:18:03.505Z,101285.91
2018-05-10T20:20:29.231Z,101285.55
2018-05-10T20:22:54.956Z,101283.60
2018-05-10T20:25:20.687Z,101291.70
2018-05-10T20:27:46.404Z,101294.34
2018-05-10T20:30:12.133Z,101290.73
2018-05-10T20:32:37.864Z,101296.56
2018-05-10T20:35:04.730Z,101307.34
2018-05-10T20:37:31.624Z,101310.58
2018-05-10T20:39:57.409Z,101316.92
2018-05-10T20:42:23.126Z,101324.44
2018-05-10T20:44:48.982Z,101326.26
2018-05-10T20:47:14.612Z,101323.06
2018-05-10T20:49:40.349Z,101317.00
2018-05-10T20:52:06.090Z,101321.51
2018-05-10T20:54:31.819Z,101321.11
2018-05-10T20:56:57.537Z,101322.08
2018-05-10T20:59:23.274Z,101317.62
2018-05-10T21:01:49.016Z,101316.45
2018-05-10T21:04:14.827Z,101315.97
2018-05-10T21:06:40.497Z,101316.41
2018-05-10T21:09:06.236Z,101315.30
2018-05-10T21:11:31.964Z,101311.67
2018-05-10T21:13:57.686Z,101308.26
2018-05-10T21:16:23.495Z,101310.03
2018-05-10T21:18:49.156Z,101321.13
2018-05-10T21:21:14.896Z,101329.53
2018-05-10T21:23:40.612Z,101331.74
2018-05-10T21:26:06.370Z,101343.64
2018-05-10T21:28:32.072Z,101340.06
2018-05-10T21:30:57.809Z,101336.53
2018-05-10T21:33:23.532Z,101340.11
2018-05-10T21:35:49.267Z,101347.74
2018-05-10T21:38:14.992Z,101349.47
2018-05-10T21:40:40.726Z,101357.48
2018-05-10T21:43:06.444Z,101357.88
2018-05-10T21:45:32.180Z,101373.80
2018-05-10T21:47:57.893Z,101383.38
2018-05-10T21:50:26.465Z,101385.30
2018-05-10T21:52:52.195Z,101386.95
2018-05-10T21:55:17.932Z,101382.56
2018-05-10T21:57:43.656Z,101384.30
2018-05-10T22:00:09.401Z,101386.23
2018-05-10T22:02:35.121Z,101386.19
2018-05-10T22:05:00.864Z,101385.45
2018-05-10T22:07:26.611Z,101387.67
2018-05-10T22:09:52.344Z,101397.00
2018-05-10T22:12:18.079Z,101398.69
2018-05-10T22:14:43.799Z,101399.94
2018-05-10T22:17:09.540Z,101410.74
2018-05-10T22:19:35.256Z,101419.40
2018-05-10T22:22:01.036Z,101424.86
2018-05-10T22:24:26.792Z,101420.88
2018-05-10T22:26:52.532Z,101426.41
2018-05-10T22:29:18.265Z,101413.44
2018-05-10T22:31:44.004Z,101422.36
2018-05-10T22:34:09.731Z,101430.47
2018-05-10T22:36:35.470Z,101437.98
2018-05-10T22:39:01.192Z,101443.29
2018-05-10T22:41:27.018Z,101442.89
2018-05-10T22:43:52.778Z,101453.50
2018-05-10T22:46:18.518Z,101455.85
2018-05-10T22:48:44.235Z,101451.80
2018-05-10T22:51:09.975Z,101451.47
2018-05-10T22:53:35.711Z,101448.77
2018-05-10T22:56:01.552Z,101447.89
2018-05-10T22:58:27.221Z,101450.62
2018-05-10T23:00:52.957Z,101457.25
2018-05-10T23:03:18.727Z,101460.86
2018-05-10T23:05:44.693Z,101468.30
2018-05-10T23:08:10.429Z,101474.97
2018-05-10T23:10:36.174Z,101478.06
2018-05-10T23:13:02.136Z,101476.70
2018-05-10T23:15:27.864Z,101482.82
2018-05-10T23:17:53.598Z,101490.81
2018-05-10T23:20:19.324Z,101496.59
2018-05-10T23:22:45.117Z,101495.41
2018-05-10T23:25:10.836Z,101497.66
2018-05-10T23:27:36.572Z,101496.27
2018-05-10T23:30:02.289Z,101489.77
2018-05-10T23:32:28.032Z,101496.80
2018-05-10T23:34:53.788Z,101499.05
2018-05-10T23:37:19.524Z,101503.95
2018-05-10T23:39:45.242Z,101503.09
2018-05-10T23:42:10.980Z,101503.91
2018-05-10T23:44:36.698Z,101500.41
2018-05-10T23:47:02.441Z,101499.48
2018-05-10T23:49:28.159Z,101496.91
2018-05-10T23:51:53.900Z,101490.69
2018-05-10T23:54:19.617Z,101491.23
2018-05-10T23:56:45.352Z,101489.05
2018-05-10T23:59:11.069Z,101489.12
